Baltia — 9HMG9 — position and weather

sailwx.info

Track history (hours):
 
Tides and Currents Weather Stations Pressure Air Temp Water Temp Dewpoint Dewpoint Depression Visibility Wind Speed Wind Dir Waves Ship Positions

Baltia

Last reported at 2016-Dec-31 21:04 UTC. Time now 2017-Jan-17 15:09 UTC.
Position S 02°04' W 044°06'.
Warning: this ship's position is 16 days out of date.

Length 224 m; draft 14.3 m.

Type: Cargo ship. MMSI: 249174000.

Date/timePositionNaut miles runAvg speedWind from/ knotsBaromVisibWave heightAir tempDewpointWater temp
2016-Dec-31 21:04S 02°04' W 044°06'7 7.5
2016-Dec-31 20:08S 02°10' W 044°10'0 0.0
2016-Dec-31 17:32S 02°10' W 044°10'0 0.2
2016-Dec-31 16:32S 02°10' W 044°10'0 0.0
2016-Dec-31 15:32S 02°10' W 044°10'0 0.0
2016-Dec-31 14:32S 02°10' W 044°10'0 0.0
2016-Dec-31 13:32S 02°10' W 044°10'0 0.3
2016-Dec-31 12:32S 02°10' W 044°10'0 0.1
2016-Dec-31 08:33S 02°11' W 044°10'7 7.3
2016-Dec-31 07:33S 02°17' W 044°14'8 8.4
2016-Dec-31 06:33S 02°24' W 044°19'9 8.8
2016-Dec-31 05:33S 02°32' W 044°23'2 1.9
2016-Dec-31 04:27S 02°34' W 044°23'0 0.0
2016-Dec-31 00:33S 02°34' W 044°23'0 0.0
2016-Dec-30 23:12S 02°34' W 044°23'0 0.0
2016-Dec-30 19:30S 02°34' W 044°23'0 0.0
2016-Dec-30 17:09S 02°34' W 044°23'0 0.0
2016-Dec-30 16:24S 02°34' W 044°23'7 0.6
2016-Dec-30 04:29S 02°27' W 044°21'4 4.0
2016-Dec-30 03:33S 02°24' W 044°20'1 1.4
2016-Dec-30 02:33S 02°23' W 044°20'0 0.0
2016-Dec-30 01:33S 02°23' W 044°20'0 0.1
2016-Dec-30 00:33S 02°23' W 044°20'0 0.2
2016-Dec-29 23:33S 02°23' W 044°21'0 0.1
2016-Dec-29 22:33S 02°23' W 044°21'0 0.0
2016-Dec-29 21:33S 02°23' W 044°21'0 0.0
2016-Dec-29 20:33S 02°23' W 044°21'0 0.0
2016-Dec-29 19:33S 02°23' W 044°21'0 0.0
2016-Dec-29 18:33S 02°23' W 044°21'1 1.3
2016-Dec-29 17:33S 02°22' W 044°20'1010.2
2016-Dec-29 16:33S 02°14' W 044°13'1212.2
2016-Dec-29 15:34S 02°04' W 044°06'  
Track history (hours):
 
Tides and Currents Weather Stations Pressure Air Temp Water Temp Dewpoint Dewpoint Depression Visibility Wind Speed Wind Dir Waves Ship Positions

Baltia

Last reported at 2016-Dec-31 21:04 UTC. Time now 2017-Jan-17 15:09 UTC.
Position S 02°04' W 044°06'.
Warning: this ship's position is 16 days out of date.

Length 224 m; draft 14.3 m.

Type: Cargo ship. MMSI: 249174000.

Date/timePositionNaut miles runAvg speedWind from/ knotsBaromVisibWave heightAir tempDewpointWater temp
2016-Dec-31 21:04S 02°04' W 044°06'7 7.5
2016-Dec-31 20:08S 02°10' W 044°10'0 0.0
2016-Dec-31 17:32S 02°10' W 044°10'0 0.2
2016-Dec-31 16:32S 02°10' W 044°10'0 0.0
2016-Dec-31 15:32S 02°10' W 044°10'0 0.0
2016-Dec-31 14:32S 02°10' W 044°10'0 0.0
2016-Dec-31 13:32S 02°10' W 044°10'0 0.3
2016-Dec-31 12:32S 02°10' W 044°10'0 0.1
2016-Dec-31 08:33S 02°11' W 044°10'7 7.3
2016-Dec-31 07:33S 02°17' W 044°14'8 8.4
2016-Dec-31 06:33S 02°24' W 044°19'9 8.8
2016-Dec-31 05:33S 02°32' W 044°23'2 1.9
2016-Dec-31 04:27S 02°34' W 044°23'0 0.0
2016-Dec-31 00:33S 02°34' W 044°23'0 0.0
2016-Dec-30 23:12S 02°34' W 044°23'0 0.0
2016-Dec-30 19:30S 02°34' W 044°23'0 0.0
2016-Dec-30 17:09S 02°34' W 044°23'0 0.0
2016-Dec-30 16:24S 02°34' W 044°23'7 0.6
2016-Dec-30 04:29S 02°27' W 044°21'4 4.0
2016-Dec-30 03:33S 02°24' W 044°20'1 1.4
2016-Dec-30 02:33S 02°23' W 044°20'0 0.0
2016-Dec-30 01:33S 02°23' W 044°20'0 0.1
2016-Dec-30 00:33S 02°23' W 044°20'0 0.2
2016-Dec-29 23:33S 02°23' W 044°21'0 0.1
2016-Dec-29 22:33S 02°23' W 044°21'0 0.0
2016-Dec-29 21:33S 02°23' W 044°21'0 0.0
2016-Dec-29 20:33S 02°23' W 044°21'0 0.0
2016-Dec-29 19:33S 02°23' W 044°21'0 0.0
2016-Dec-29 18:33S 02°23' W 044°21'1 1.3
2016-Dec-29 17:33S 02°22' W 044°20'1010.2
2016-Dec-29 16:33S 02°14' W 044°13'1212.2
2016-Dec-29 15:34S 02°04' W 044°06'  

Dump ship's entire track history